sensor_id;sensor_type;location;lat;lon;timestamp;temperature;humidity
38209;DHT22;24016;52.102;11.584;2022-09-12T00:00:25;11.40;99.90
38209;DHT22;24016;52.102;11.584;2022-09-12T00:02:52;11.30;99.90
38209;DHT22;24016;52.102;11.584;2022-09-12T00:05:18;11.30;99.90
38209;DHT22;24016;52.102;11.584;2022-09-12T00:07:43;11.30;99.90
38209;DHT22;24016;52.102;11.584;2022-09-12T00:10:09;11.30;99.90
38209;DHT22;24016;52.102;11.584;2022-09-12T00:12:34;11.30;99.90
38209;DHT22;24016;52.102;11.584;2022-09-12T00:15:00;11.50;99.90
38209;DHT22;24016;52.102;11.584;2022-09-12T00:17:26;11.60;99.90
38209;DHT22;24016;52.102;11.584;2022-09-12T00:19:51;11.70;99.90
38209;DHT22;24016;52.102;11.584;2022-09-12T00:22:17;11.70;99.90
38209;DHT22;24016;52.102;11.584;2022-09-12T00:24:43;11.80;99.90
38209;DHT22;24016;52.102;11.584;2022-09-12T00:27:08;11.80;99.90
38209;DHT22;24016;52.102;11.584;2022-09-12T00:29:34;11.90;99.90
38209;DHT22;24016;52.102;11.584;2022-09-12T00:31:59;11.90;99.90
38209;DHT22;24016;52.102;11.584;2022-09-12T00:34:25;11.90;99.90
38209;DHT22;24016;52.102;11.584;2022-09-12T00:36:50;11.90;99.90
38209;DHT22;24016;52.102;11.584;2022-09-12T00:39:16;11.80;99.90
38209;DHT22;24016;52.102;11.584;2022-09-12T00:41:42;11.80;99.90
38209;DHT22;24016;52.102;11.584;2022-09-12T00:46:43;11.90;99.90
38209;DHT22;24016;52.102;11.584;2022-09-12T00:52:10;11.90;99.90
38209;DHT22;24016;52.102;11.584;2022-09-12T00:54:44;12.00;99.90
38209;DHT22;24016;52.102;11.584;2022-09-12T00:57:13;12.10;99.90
38209;DHT22;24016;52.102;11.584;2022-09-12T00:59:52;12.10;99.90
38209;DHT22;24016;52.102;11.584;2022-09-12T01:02:19;12.20;99.90
38209;DHT22;24016;52.102;11.584;2022-09-12T01:04:45;12.30;99.90
38209;DHT22;24016;52.102;11.584;2022-09-12T01:07:12;12.30;99.90
38209;DHT22;24016;52.102;11.584;2022-09-12T01:09:41;12.30;99.90
38209;DHT22;24016;52.102;11.584;2022-09-12T01:12:07;12.30;99.90
38209;DHT22;24016;52.102;11.584;2022-09-12T01:14:33;12.30;99.90
38209;DHT22;24016;52.102;11.584;2022-09-12T01:16:59;12.30;99.90
38209;DHT22;24016;52.102;11.584;2022-09-12T01:22:53;12.40;99.90
38209;DHT22;24016;52.102;11.584;2022-09-12T01:28:22;12.30;99.90
38209;DHT22;24016;52.102;11.584;2022-09-12T01:33:56;12.30;99.90
38209;DHT22;24016;52.102;11.584;2022-09-12T01:39:05;12.30;99.90
38209;DHT22;24016;52.102;11.584;2022-09-12T01:47:23;12.20;99.90
38209;DHT22;24016;52.102;11.584;2022-09-12T01:50:00;12.10;99.90
38209;DHT22;24016;52.102;11.584;2022-09-12T01:52:41;12.10;99.90
38209;DHT22;24016;52.102;11.584;2022-09-12T01:58:04;11.90;99.90
38209;DHT22;24016;52.102;11.584;2022-09-12T02:00:36;11.90;99.90
38209;DHT22;24016;52.102;11.584;2022-09-12T02:03:10;11.80;99.90
38209;DHT22;24016;52.102;11.584;2022-09-12T02:05:41;11.80;99.90
38209;DHT22;24016;52.102;11.584;2022-09-12T02:08:12;11.70;99.90
38209;DHT22;24016;52.102;11.584;2022-09-12T02:11:05;11.70;99.90
38209;DHT22;24016;52.102;11.584;2022-09-12T02:13:49;11.60;99.90
38209;DHT22;24016;52.102;11.584;2022-09-12T02:16:23;11.60;99.90
38209;DHT22;24016;52.102;11.584;2022-09-12T02:18:54;11.50;99.90
38209;DHT22;24016;52.102;11.584;2022-09-12T02:21:23;11.50;99.90
38209;DHT22;24016;52.102;11.584;2022-09-12T02:23:56;11.40;99.90
38209;DHT22;24016;52.102;11.584;2022-09-12T02:26:38;11.30;99.90
38209;DHT22;24016;52.102;11.584;2022-09-12T02:29:05;11.30;99.90
38209;DHT22;24016;52.102;11.584;2022-09-12T02:34:20;11.20;99.90
38209;DHT22;24016;52.102;11.584;2022-09-12T02:39:30;11.10;99.90
38209;DHT22;24016;52.102;11.584;2022-09-12T02:41:58;11.10;99.90
38209;DHT22;24016;52.102;11.584;2022-09-12T02:44:26;11.00;99.90
38209;DHT22;24016;52.102;11.584;2022-09-12T02:47:07;11.00;99.90
38209;DHT22;24016;52.102;11.584;2022-09-12T02:49:34;10.90;99.90
38209;DHT22;24016;52.102;11.584;2022-09-12T02:52:00;11.00;99.90
38209;DHT22;24016;52.102;11.584;2022-09-12T02:54:27;11.00;99.90
38209;DHT22;24016;52.102;11.584;2022-09-12T02:56:53;10.90;99.90
38209;DHT22;24016;52.102;11.584;2022-09-12T02:59:21;10.90;99.90
38209;DHT22;24016;52.102;11.584;2022-09-12T03:02:27;10.90;99.90
38209;DHT22;24016;52.102;11.584;2022-09-12T03:05:20;10.80;99.90
38209;DHT22;24016;52.102;11.584;2022-09-12T03:08:13;10.70;99.90
38209;DHT22;24016;52.102;11.584;2022-09-12T03:16:34;10.70;99.90
38209;DHT22;24016;52.102;11.584;2022-09-12T03:19:08;10.60;99.90
38209;DHT22;24016;52.102;11.584;2022-09-12T03:27:15;10.60;99.90
38209;DHT22;24016;52.102;11.584;2022-09-12T03:29:42;10.60;99.90
38209;DHT22;24016;52.102;11.584;2022-09-12T03:32:10;10.50;99.90
38209;DHT22;24016;52.102;11.584;2022-09-12T03:34:35;10.40;99.90
38209;DHT22;24016;52.102;11.584;2022-09-12T03:37:01;10.50;99.90
38209;DHT22;24016;52.102;11.584;2022-09-12T03:39:26;10.50;99.90
38209;DHT22;24016;52.102;11.584;2022-09-12T03:41:53;10.40;99.90
38209;DHT22;24016;52.102;11.584;2022-09-12T03:44:19;10.40;99.90
38209;DHT22;24016;52.102;11.584;2022-09-12T03:46:44;10.30;99.90
38209;DHT22;24016;52.102;11.584;2022-09-12T03:49:10;10.30;99.90
38209;DHT22;24016;52.102;11.584;2022-09-12T03:51:37;10.30;99.90
38209;DHT22;24016;52.102;11.584;2022-09-12T03:54:03;10.30;99.90
38209;DHT22;24016;52.102;11.584;2022-09-12T03:56:29;10.20;99.90
38209;DHT22;24016;52.102;11.584;2022-09-12T03:58:54;10.20;99.90
38209;DHT22;24016;52.102;11.584;2022-09-12T04:01:20;10.20;99.90
38209;DHT22;24016;52.102;11.584;2022-09-12T04:03:48;10.20;99.90
38209;DHT22;24016;52.102;11.584;2022-09-12T04:06:15;10.20;99.90
38209;DHT22;24016;52.102;11.584;2022-09-12T04:08:42;10.20;99.90
38209;DHT22;24016;52.102;11.584;2022-09-12T04:11:12;10.10;99.90
38209;DHT22;24016;52.102;11.584;2022-09-12T04:13:40;10.10;99.90
38209;DHT22;24016;52.102;11.584;2022-09-12T04:16:06;10.10;99.90
38209;DHT22;24016;52.102;11.584;2022-09-12T04:18:32;10.10;99.90
38209;DHT22;24016;52.102;11.584;2022-09-12T04:21:06;10.00;99.90
38209;DHT22;24016;52.102;11.584;2022-09-12T04:23:32;10.00;99.90
38209;DHT22;24016;52.102;11.584;2022-09-12T04:25:59;9.90;99.90
38209;DHT22;24016;52.102;11.584;2022-09-12T04:28:26;10.00;99.90
38209;DHT22;24016;52.102;11.584;2022-09-12T04:30:53;9.90;99.90
38209;DHT22;24016;52.102;11.584;2022-09-12T04:33:19;9.90;99.90
38209;DHT22;24016;52.102;11.584;2022-09-12T04:35:47;9.90;99.90
38209;DHT22;24016;52.102;11.584;2022-09-12T04:38:13;9.90;99.90
38209;DHT22;24016;52.102;11.584;2022-09-12T04:40:39;9.90;99.90
38209;DHT22;24016;52.102;11.584;2022-09-12T04:43:05;9.90;99.90
38209;DHT22;24016;52.102;11.584;2022-09-12T04:45:32;9.80;99.90
38209;DHT22;24016;52.102;11.584;2022-09-12T04:47:57;9.80;99.90
38209;DHT22;24016;52.102;11.584;2022-09-12T04:50:23;9.80;99.90
38209;DHT22;24016;52.102;11.584;2022-09-12T04:52:53;9.80;99.90
38209;DHT22;24016;52.102;11.584;2022-09-12T04:55:20;9.80;99.90
38209;DHT22;24016;52.102;11.584;2022-09-12T04:57:46;9.80;99.90
38209;DHT22;24016;52.102;11.584;2022-09-12T05:00:13;9.80;99.90
38209;DHT22;24016;52.102;11.584;2022-09-12T05:02:40;9.70;99.90
38209;DHT22;24016;52.102;11.584;2022-09-12T05:05:06;9.70;99.90
38209;DHT22;24016;52.102;11.584;2022-09-12T05:07:32;9.70;99.90
38209;DHT22;24016;52.102;11.584;2022-09-12T05:09:58;9.70;99.90
38209;DHT22;24016;52.102;11.584;2022-09-12T05:12:24;9.70;99.90
38209;DHT22;24016;52.102;11.584;2022-09-12T05:14:50;9.70;99.90
38209;DHT22;24016;52.102;11.584;2022-09-12T05:17:16;9.70;99.90
38209;DHT22;24016;52.102;11.584;2022-09-12T05:19:41;9.70;99.90
38209;DHT22;24016;52.102;11.584;2022-09-12T05:22:07;9.70;99.90
38209;DHT22;24016;52.102;11.584;2022-09-12T05:24:32;9.70;99.90
38209;DHT22;24016;52.102;11.584;2022-09-12T05:26:59;9.70;99.90
38209;DHT22;24016;52.102;11.584;2022-09-12T05:29:24;9.80;99.90
38209;DHT22;24016;52.102;11.584;2022-09-12T05:31:50;9.80;99.90
38209;DHT22;24016;52.102;11.584;2022-09-12T05:34:17;9.80;99.90
38209;DHT22;24016;52.102;11.584;2022-09-12T05:36:43;9.90;99.90
38209;DHT22;24016;52.102;11.584;2022-09-12T05:39:09;9.90;99.90
38209;DHT22;24016;52.102;11.584;2022-09-12T05:41:35;10.00;99.90
38209;DHT22;24016;52.102;11.584;2022-09-12T05:44:05;10.00;99.90
38209;DHT22;24016;52.102;11.584;2022-09-12T05:46:36;10.10;99.90
38209;DHT22;24016;52.102;11.584;2022-09-12T05:49:04;10.20;99.90
38209;DHT22;24016;52.102;11.584;2022-09-12T05:51:35;10.30;99.90
38209;DHT22;24016;52.102;11.584;2022-09-12T05:54:04;10.40;99.90
38209;DHT22;24016;52.102;11.584;2022-09-12T05:56:31;10.50;99.90
38209;DHT22;24016;52.102;11.584;2022-09-12T05:59:01;10.50;99.90
38209;DHT22;24016;52.102;11.584;2022-09-12T06:01:28;10.60;99.90
38209;DHT22;24016;52.102;11.584;2022-09-12T06:03:57;10.80;99.90
38209;DHT22;24016;52.102;11.584;2022-09-12T06:06:25;10.90;99.90
38209;DHT22;24016;52.102;11.584;2022-09-12T06:08:55;11.10;99.90
38209;DHT22;24016;52.102;11.584;2022-09-12T06:11:23;11.30;99.90
38209;DHT22;24016;52.102;11.584;2022-09-12T06:13:50;11.40;99.90
38209;DHT22;24016;52.102;11.584;2022-09-12T06:16:18;11.60;99.90
38209;DHT22;24016;52.102;11.584;2022-09-12T06:18:49;11.70;99.90
38209;DHT22;24016;52.102;11.584;2022-09-12T06:21:15;11.80;99.90
38209;DHT22;24016;52.102;11.584;2022-09-12T06:23:41;11.90;99.90
38209;DHT22;24016;52.102;11.584;2022-09-12T06:26:09;12.00;99.90
38209;DHT22;24016;52.102;11.584;2022-09-12T06:28:37;12.10;99.90
38209;DHT22;24016;52.102;11.584;2022-09-12T06:31:04;12.10;99.90
38209;DHT22;24016;52.102;11.584;2022-09-12T06:33:32;12.10;99.90
38209;DHT22;24016;52.102;11.584;2022-09-12T06:36:09;12.10;99.90
38209;DHT22;24016;52.102;11.584;2022-09-12T06:38:35;12.20;99.90
38209;DHT22;24016;52.102;11.584;2022-09-12T06:41:06;12.10;99.90
38209;DHT22;24016;52.102;11.584;2022-09-12T06:43:34;12.20;99.90
38209;DHT22;24016;52.102;11.584;2022-09-12T06:46:01;12.20;99.90
38209;DHT22;24016;52.102;11.584;2022-09-12T06:48:27;12.20;99.90
38209;DHT22;24016;52.102;11.584;2022-09-12T06:50:58;12.40;99.90
38209;DHT22;24016;52.102;11.584;2022-09-12T06:53:25;12.50;99.90
38209;DHT22;24016;52.102;11.584;2022-09-12T06:55:57;12.60;99.90
38209;DHT22;24016;52.102;11.584;2022-09-12T06:58:24;12.80;99.90
38209;DHT22;24016;52.102;11.584;2022-09-12T07:00:50;12.90;99.90
38209;DHT22;24016;52.102;11.584;2022-09-12T07:03:16;13.10;99.90
38209;DHT22;24016;52.102;11.584;2022-09-12T07:05:43;13.20;99.90
38209;DHT22;24016;52.102;11.584;2022-09-12T07:08:09;13.40;99.90
38209;DHT22;24016;52.102;11.584;2022-09-12T07:10:34;13.60;99.90
38209;DHT22;24016;52.102;11.584;2022-09-12T07:13:01;13.70;99.90
38209;DHT22;24016;52.102;11.584;2022-09-12T07:15:27;13.90;99.90
38209;DHT22;24016;52.102;11.584;2022-09-12T07:17:53;14.10;99.90
38209;DHT22;24016;52.102;11.584;2022-09-12T07:20:18;14.20;99.90
38209;DHT22;24016;52.102;11.584;2022-09-12T07:22:44;14.30;99.90
38209;DHT22;24016;52.102;11.584;2022-09-12T07:25:09;14.50;99.90
38209;DHT22;24016;52.102;11.584;2022-09-12T07:27:35;14.60;99.90
38209;DHT22;24016;52.102;11.584;2022-09-12T07:30:03;14.80;99.90
38209;DHT22;24016;52.102;11.584;2022-09-12T07:32:29;15.00;99.90
38209;DHT22;24016;52.102;11.584;2022-09-12T07:34:55;15.10;99.90
38209;DHT22;24016;52.102;11.584;2022-09-12T07:37:20;15.20;99.90
38209;DHT22;24016;52.102;11.584;2022-09-12T07:39:46;15.40;99.90
38209;DHT22;24016;52.102;11.584;2022-09-12T07:42:12;15.50;99.90
38209;DHT22;24016;52.102;11.584;2022-09-12T07:44:37;15.60;99.90
38209;DHT22;24016;52.102;11.584;2022-09-12T07:47:03;15.70;99.90
38209;DHT22;24016;52.102;11.584;2022-09-12T07:49:28;15.80;99.90
38209;DHT22;24016;52.102;11.584;2022-09-12T07:51:55;16.00;99.90
38209;DHT22;24016;52.102;11.584;2022-09-12T07:54:21;16.20;99.90
38209;DHT22;24016;52.102;11.584;2022-09-12T07:56:46;16.30;99.90
38209;DHT22;24016;52.102;11.584;2022-09-12T07:59:12;16.40;99.90
38209;DHT22;24016;52.102;11.584;2022-09-12T08:01:38;16.60;99.90
38209;DHT22;24016;52.102;11.584;2022-09-12T08:04:04;16.80;99.90
38209;DHT22;24016;52.102;11.584;2022-09-12T08:06:30;16.90;99.90
38209;DHT22;24016;52.102;11.584;2022-09-12T08:08:59;17.30;99.90
38209;DHT22;24016;52.102;11.584;2022-09-12T08:11:26;17.80;99.90
38209;DHT22;24016;52.102;11.584;2022-09-12T08:13:54;18.20;99.90
38209;DHT22;24016;52.102;11.584;2022-09-12T08:16:23;18.40;99.90
38209;DHT22;24016;52.102;11.584;2022-09-12T08:18:49;19.00;99.90
38209;DHT22;24016;52.102;11.584;2022-09-12T08:21:19;19.80;99.90
38209;DHT22;24016;52.102;11.584;2022-09-12T08:23:46;20.40;99.90
38209;DHT22;24016;52.102;11.584;2022-09-12T08:26:12;20.70;99.90
38209;DHT22;24016;52.102;11.584;2022-09-12T08:28:38;20.70;99.90
38209;DHT22;24016;52.102;11.584;2022-09-12T08:31:11;20.70;99.90
38209;DHT22;24016;52.102;11.584;2022-09-12T08:33:38;20.80;99.90
38209;DHT22;24016;52.102;11.584;2022-09-12T08:36:19;21.30;99.90
38209;DHT22;24016;52.102;11.584;2022-09-12T08:38:47;21.50;99.90
38209;DHT22;24016;52.102;11.584;2022-09-12T08:41:34;22.10;99.90
38209;DHT22;24016;52.102;11.584;2022-09-12T08:57:45;21.50;99.90
38209;DHT22;24016;52.102;11.584;2022-09-12T09:00:14;21.50;99.90
38209;DHT22;24016;52.102;11.584;2022-09-12T09:08:50;20.70;99.90
38209;DHT22;24016;52.102;11.584;2022-09-12T09:14:23;22.20;99.90
38209;DHT22;24016;52.102;11.584;2022-09-12T09:17:24;22.40;99.90
38209;DHT22;24016;52.102;11.584;2022-09-12T09:20:01;22.70;99.90
38209;DHT22;24016;52.102;11.584;2022-09-12T09:22:54;22.80;99.90
38209;DHT22;24016;52.102;11.584;2022-09-12T09:28:49;23.90;99.90
38209;DHT22;24016;52.102;11.584;2022-09-12T09:31:23;23.40;99.90
38209;DHT22;24016;52.102;11.584;2022-09-12T09:33:51;23.30;99.90
38209;DHT22;24016;52.102;11.584;2022-09-12T09:39:05;23.70;99.90
38209;DHT22;24016;52.102;11.584;2022-09-12T09:44:17;23.80;99.90
38209;DHT22;24016;52.102;11.584;2022-09-12T09:46:43;24.90;99.90
38209;DHT22;24016;52.102;11.584;2022-09-12T09:49:12;24.80;99.90
38209;DHT22;24016;52.102;11.584;2022-09-12T09:51:40;24.90;99.90
38209;DHT22;24016;52.102;11.584;2022-09-12T09:54:18;25.00;99.90
38209;DHT22;24016;52.102;11.584;2022-09-12T09:56:45;25.00;99.90
38209;DHT22;24016;52.102;11.584;2022-09-12T09:59:26;24.50;99.90
38209;DHT22;24016;52.102;11.584;2022-09-12T10:02:20;24.70;99.90
38209;DHT22;24016;52.102;11.584;2022-09-12T10:04:57;24.10;99.90
38209;DHT22;24016;52.102;11.584;2022-09-12T10:07:25;24.70;99.90
38209;DHT22;24016;52.102;11.584;2022-09-12T10:10:15;25.00;99.90
38209;DHT22;24016;52.102;11.584;2022-09-12T10:12:41;24.70;99.90
38209;DHT22;24016;52.102;11.584;2022-09-12T10:15:20;25.00;99.90
38209;DHT22;24016;52.102;11.584;2022-09-12T10:17:48;24.10;99.90
38209;DHT22;24016;52.102;11.584;2022-09-12T10:20:34;23.30;99.90
38209;DHT22;24016;52.102;11.584;2022-09-12T10:23:14;23.40;99.90
38209;DHT22;24016;52.102;11.584;2022-09-12T10:25:51;23.00;99.90
38209;DHT22;24016;52.102;11.584;2022-09-12T10:28:32;23.60;99.90
38209;DHT22;24016;52.102;11.584;2022-09-12T10:30:58;23.70;99.90
38209;DHT22;24016;52.102;11.584;2022-09-12T10:33:27;23.10;99.90
38209;DHT22;24016;52.102;11.584;2022-09-12T10:35:54;24.00;99.90
38209;DHT22;24016;52.102;11.584;2022-09-12T10:38:30;23.90;99.90
38209;DHT22;24016;52.102;11.584;2022-09-12T10:41:07;25.00;99.90
38209;DHT22;24016;52.102;11.584;2022-09-12T10:43:40;25.70;99.90
38209;DHT22;24016;52.102;11.584;2022-09-12T10:46:20;25.90;99.90
38209;DHT22;24016;52.102;11.584;2022-09-12T10:48:50;26.50;99.90
38209;DHT22;24016;52.102;11.584;2022-09-12T10:53:49;27.00;99.90
38209;DHT22;24016;52.102;11.584;2022-09-12T10:56:16;26.60;99.60
38209;DHT22;24016;52.102;11.584;2022-09-12T11:01:41;26.40;99.90
38209;DHT22;24016;52.102;11.584;2022-09-12T11:07:06;26.10;99.40
38209;DHT22;24016;52.102;11.584;2022-09-12T11:17:59;27.20;98.20
38209;DHT22;24016;52.102;11.584;2022-09-12T11:32:22;27.30;94.70
38209;DHT22;24016;52.102;11.584;2022-09-12T11:37:35;26.30;96.00
38209;DHT22;24016;52.102;11.584;2022-09-12T11:40:16;27.00;95.40
38209;DHT22;24016;52.102;11.584;2022-09-12T11:42:46;26.30;94.90
38209;DHT22;24016;52.102;11.584;2022-09-12T11:45:22;27.00;96.00
38209;DHT22;24016;52.102;11.584;2022-09-12T11:47:54;26.60;95.40
38209;DHT22;24016;52.102;11.584;2022-09-12T11:50:27;26.20;97.10
38209;DHT22;24016;52.102;11.584;2022-09-12T11:53:31;26.10;96.00
38209;DHT22;24016;52.102;11.584;2022-09-12T11:55:59;25.80;95.30
38209;DHT22;24016;52.102;11.584;2022-09-12T11:58:27;25.50;96.50
38209;DHT22;24016;52.102;11.584;2022-09-12T12:01:01;25.60;97.10
38209;DHT22;24016;52.102;11.584;2022-09-12T12:03:43;26.40;95.80
38209;DHT22;24016;52.102;11.584;2022-09-12T12:08:43;27.80;94.60
38209;DHT22;24016;52.102;11.584;2022-09-12T12:11:36;27.40;95.70
38209;DHT22;24016;52.102;11.584;2022-09-12T12:14:06;27.60;93.90
38209;DHT22;24016;52.102;11.584;2022-09-12T12:16:37;28.10;94.10
38209;DHT22;24016;52.102;11.584;2022-09-12T12:21:43;27.50;94.30
38209;DHT22;24016;52.102;11.584;2022-09-12T12:24:16;27.30;93.80
38209;DHT22;24016;52.102;11.584;2022-09-12T12:29:43;26.10;94.70
38209;DHT22;24016;52.102;11.584;2022-09-12T12:34:36;25.60;94.40
38209;DHT22;24016;52.102;11.584;2022-09-12T12:47:43;26.60;94.90
38209;DHT22;24016;52.102;11.584;2022-09-12T12:50:19;26.10;95.00
38209;DHT22;24016;52.102;11.584;2022-09-12T12:57:57;26.20;95.30
38209;DHT22;24016;52.102;11.584;2022-09-12T13:03:06;26.60;93.60
38209;DHT22;24016;52.102;11.584;2022-09-12T13:05:48;26.90;93.90
38209;DHT22;24016;52.102;11.584;2022-09-12T13:10:51;26.10;92.80
38209;DHT22;24016;52.102;11.584;2022-09-12T13:13:48;25.00;92.50
38209;DHT22;24016;52.102;11.584;2022-09-12T13:16:10;24.70;93.60
38209;DHT22;24016;52.102;11.584;2022-09-12T13:18:48;25.80;92.20
38209;DHT22;24016;52.102;11.584;2022-09-12T13:21:16;25.50;93.80
38209;DHT22;24016;52.102;11.584;2022-09-12T13:23:43;25.80;92.40
38209;DHT22;24016;52.102;11.584;2022-09-12T13:26:12;25.70;92.90
38209;DHT22;24016;52.102;11.584;2022-09-12T13:28:38;25.40;93.10
38209;DHT22;24016;52.102;11.584;2022-09-12T13:31:23;24.90;92.50
38209;DHT22;24016;52.102;11.584;2022-09-12T13:33:52;24.40;93.30
38209;DHT22;24016;52.102;11.584;2022-09-12T13:42:48;24.40;95.60
38209;DHT22;24016;52.102;11.584;2022-09-12T13:45:24;24.80;95.00
38209;DHT22;24016;52.102;11.584;2022-09-12T13:47:59;24.90;94.70
38209;DHT22;24016;52.102;11.584;2022-09-12T13:53:15;24.90;94.20
38209;DHT22;24016;52.102;11.584;2022-09-12T13:55:45;24.60;95.10
38209;DHT22;24016;52.102;11.584;2022-09-12T13:58:23;24.20;94.30
38209;DHT22;24016;52.102;11.584;2022-09-12T14:01:11;23.80;95.30
38209;DHT22;24016;52.102;11.584;2022-09-12T14:03:54;23.60;95.90
38209;DHT22;24016;52.102;11.584;2022-09-12T14:06:50;23.50;95.20
38209;DHT22;24016;52.102;11.584;2022-09-12T14:09:22;23.50;96.40
38209;DHT22;24016;52.102;11.584;2022-09-12T14:11:49;23.40;96.10
38209;DHT22;24016;52.102;11.584;2022-09-12T14:14:37;23.40;95.10
38209;DHT22;24016;52.102;11.584;2022-09-12T14:19:42;22.90;97.30
38209;DHT22;24016;52.102;11.584;2022-09-12T14:22:11;22.90;96.50
38209;DHT22;24016;52.102;11.584;2022-09-12T14:24:51;22.80;97.30
38209;DHT22;24016;52.102;11.584;2022-09-12T14:27:31;22.90;96.40
38209;DHT22;24016;52.102;11.584;2022-09-12T14:30:05;22.50;96.60
38209;DHT22;24016;52.102;11.584;2022-09-12T14:32:33;22.40;97.10
38209;DHT22;24016;52.102;11.584;2022-09-12T14:35:17;22.60;95.20
38209;DHT22;24016;52.102;11.584;2022-09-12T14:37:47;22.60;95.60
38209;DHT22;24016;52.102;11.584;2022-09-12T14:40:21;22.80;95.20
38209;DHT22;24016;52.102;11.584;2022-09-12T14:42:49;22.90;95.70
38209;DHT22;24016;52.102;11.584;2022-09-12T14:45:21;22.70;95.40
38209;DHT22;24016;52.102;11.584;2022-09-12T14:47:50;22.60;97.50
38209;DHT22;24016;52.102;11.584;2022-09-12T14:50:19;22.80;95.80
38209;DHT22;24016;52.102;11.584;2022-09-12T14:52:45;22.90;94.30
38209;DHT22;24016;52.102;11.584;2022-09-12T14:55:31;23.00;95.80
38209;DHT22;24016;52.102;11.584;2022-09-12T14:58:15;23.00;94.80
38209;DHT22;24016;52.102;11.584;2022-09-12T15:03:47;22.40;95.20
38209;DHT22;24016;52.102;11.584;2022-09-12T15:06:26;22.50;94.70
38209;DHT22;24016;52.102;11.584;2022-09-12T15:08:57;22.50;94.30
38209;DHT22;24016;52.102;11.584;2022-09-12T15:11:23;22.40;95.80
38209;DHT22;24016;52.102;11.584;2022-09-12T15:13:49;22.40;94.70
38209;DHT22;24016;52.102;11.584;2022-09-12T15:16:14;22.40;95.80
38209;DHT22;24016;52.102;11.584;2022-09-12T15:18:41;22.30;95.80
38209;DHT22;24016;52.102;11.584;2022-09-12T15:21:09;22.20;96.50
38209;DHT22;24016;52.102;11.584;2022-09-12T15:23:49;22.20;96.30
38209;DHT22;24016;52.102;11.584;2022-09-12T15:26:23;22.20;95.80
38209;DHT22;24016;52.102;11.584;2022-09-12T15:28:51;22.10;96.60
38209;DHT22;24016;52.102;11.584;2022-09-12T15:31:30;21.90;96.60
38209;DHT22;24016;52.102;11.584;2022-09-12T15:34:00;21.80;96.80
38209;DHT22;24016;52.102;11.584;2022-09-12T15:36:26;21.60;97.80
38209;DHT22;24016;52.102;11.584;2022-09-12T15:38:53;21.60;98.70
38209;DHT22;24016;52.102;11.584;2022-09-12T15:41:21;21.40;98.80
38209;DHT22;24016;52.102;11.584;2022-09-12T15:43:48;21.40;99.50
38209;DHT22;24016;52.102;11.584;2022-09-12T15:46:15;21.40;99.70
38209;DHT22;24016;52.102;11.584;2022-09-12T15:48:41;21.30;99.90
38209;DHT22;24016;52.102;11.584;2022-09-12T15:51:18;21.20;99.30
38209;DHT22;24016;52.102;11.584;2022-09-12T15:53:45;21.30;99.30
38209;DHT22;24016;52.102;11.584;2022-09-12T15:56:12;21.40;98.70
38209;DHT22;24016;52.102;11.584;2022-09-12T15:58:38;21.60;99.00
38209;DHT22;24016;52.102;11.584;2022-09-12T16:01:04;21.80;98.80
38209;DHT22;24016;52.102;11.584;2022-09-12T16:03:30;21.70;99.50
38209;DHT22;24016;52.102;11.584;2022-09-12T16:06:00;21.70;99.40
38209;DHT22;24016;52.102;11.584;2022-09-12T16:08:27;21.50;99.00
38209;DHT22;24016;52.102;11.584;2022-09-12T16:11:00;21.40;99.80
38209;DHT22;24016;52.102;11.584;2022-09-12T16:13:27;21.40;99.80
38209;DHT22;24016;52.102;11.584;2022-09-12T16:15:56;21.40;99.60
38209;DHT22;24016;52.102;11.584;2022-09-12T16:18:22;21.30;99.70
38209;DHT22;24016;52.102;11.584;2022-09-12T16:20:51;21.10;99.80
38209;DHT22;24016;52.102;11.584;2022-09-12T16:23:17;21.00;99.50
38209;DHT22;24016;52.102;11.584;2022-09-12T16:25:43;21.00;99.90
38209;DHT22;24016;52.102;11.584;2022-09-12T16:28:08;20.90;99.90
38209;DHT22;24016;52.102;11.584;2022-09-12T16:30:34;20.80;99.90
38209;DHT22;24016;52.102;11.584;2022-09-12T16:33:00;20.70;99.90
38209;DHT22;24016;52.102;11.584;2022-09-12T16:35:26;20.70;99.90
38209;DHT22;24016;52.102;11.584;2022-09-12T16:37:52;20.50;99.90
38209;DHT22;24016;52.102;11.584;2022-09-12T16:40:18;20.30;99.90
38209;DHT22;24016;52.102;11.584;2022-09-12T16:42:44;20.20;99.90
38209;DHT22;24016;52.102;11.584;2022-09-12T16:45:11;20.00;99.90
38209;DHT22;24016;52.102;11.584;2022-09-12T16:47:37;20.00;99.90
38209;DHT22;24016;52.102;11.584;2022-09-12T16:50:03;19.90;99.90
38209;DHT22;24016;52.102;11.584;2022-09-12T16:52:29;19.80;99.90
38209;DHT22;24016;52.102;11.584;2022-09-12T16:54:55;19.70;99.90
38209;DHT22;24016;52.102;11.584;2022-09-12T16:57:21;19.60;99.90
38209;DHT22;24016;52.102;11.584;2022-09-12T16:59:47;19.60;99.90
38209;DHT22;24016;52.102;11.584;2022-09-12T17:02:13;19.40;99.90
38209;DHT22;24016;52.102;11.584;2022-09-12T17:04:40;19.30;99.90
38209;DHT22;24016;52.102;11.584;2022-09-12T17:07:06;19.30;99.90
38209;DHT22;24016;52.102;11.584;2022-09-12T17:09:32;19.20;99.90
38209;DHT22;24016;52.102;11.584;2022-09-12T17:11:57;19.10;99.90
38209;DHT22;24016;52.102;11.584;2022-09-12T17:14:23;19.00;99.90
38209;DHT22;24016;52.102;11.584;2022-09-12T17:16:48;18.90;99.90
38209;DHT22;24016;52.102;11.584;2022-09-12T17:19:25;18.80;99.90
38209;DHT22;24016;52.102;11.584;2022-09-12T17:21:52;18.70;99.90
38209;DHT22;24016;52.102;11.584;2022-09-12T17:24:18;18.50;99.90
38209;DHT22;24016;52.102;11.584;2022-09-12T17:26:44;18.40;99.90
38209;DHT22;24016;52.102;11.584;2022-09-12T17:29:14;18.30;99.90
38209;DHT22;24016;52.102;11.584;2022-09-12T17:31:41;18.20;99.90
38209;DHT22;24016;52.102;11.584;2022-09-12T17:34:07;18.00;99.90
38209;DHT22;24016;52.102;11.584;2022-09-12T17:36:33;17.90;99.90
38209;DHT22;24016;52.102;11.584;2022-09-12T17:39:01;17.80;99.90
38209;DHT22;24016;52.102;11.584;2022-09-12T17:41:28;17.70;99.90
38209;DHT22;24016;52.102;11.584;2022-09-12T17:43:56;17.50;99.90
38209;DHT22;24016;52.102;11.584;2022-09-12T17:46:25;17.40;99.90
38209;DHT22;24016;52.102;11.584;2022-09-12T17:48:55;17.40;99.90
38209;DHT22;24016;52.102;11.584;2022-09-12T17:51:23;17.20;99.90
38209;DHT22;24016;52.102;11.584;2022-09-12T17:53:58;17.10;99.90
38209;DHT22;24016;52.102;11.584;2022-09-12T17:56:26;16.90;99.90
38209;DHT22;24016;52.102;11.584;2022-09-12T17:58:53;16.80;99.90
38209;DHT22;24016;52.102;11.584;2022-09-12T18:01:18;16.80;99.90
38209;DHT22;24016;52.102;11.584;2022-09-12T18:04:02;16.70;99.90
38209;DHT22;24016;52.102;11.584;2022-09-12T18:06:29;16.70;99.90